Coalton, Kentucky
Current Conditions -  °F | °C
As of 7:51 AM on Tuesday 21 Oct 2014 (Local Time) from KHTS Reporting Station
Overcast Overcast  
Wind Chill: 47°   Ceiling: 1000
Heat Index: 49°   Visibility: 8mi
Dew Point: 48°   Wind: 5mph
Humidity: 97%   Direction: 230°SW
Pressure: 29.92"   Gusts: NA
Location:  38.2878°N, 82.7547°W
Report Text: KHTS 211151Z 23004KT 8SM OVC010 09/09 A2992 RMK AO2 CIG 009V013 SLP131 70001 T00940089 10111 20089 53006
Loading
Personal Weather Stations






























Interactive Weather Map
Tropical Storm Tracking
New forecast layout! Learn more

10-Day Weather Forecast

Advertisements
Track Severe Weather on mobile